Aviosuperficie Airone LICL

Flugplatz Daten

Name: Aviosuperficie Airone

Ident: LICL

Lat: 37,11397667

Long: 14,21420574

Platzhöhe: 82 ft

IataCode:

City: Gela

Metar

2021/12/03 17:55
LICL 031755Z 33007KT 9999 SCT030 14/10 Q1004 RMK OVC OVC080 QUK / QUL / VIS MAR 10 KM VIS MIN 9999

Taf

Gewünschte Webcam nicht vorhanden? Dann fügen Sie eine hinzu. Sie wird dann so schnell wie möglich freigeschaltet
Url: Title: